SBFL/FLN METAR and TAF weather

Enter ICAO airport designator
Station Type Date Time Source
SBFL METAR 2022/12/04 06:00 UTC NOAA

SBFL 040600Z 33007KT 9999 SCT008 BKN017 25/24 Q1008


Station Type Date Time Source
SBFL Decoded METAR 2022/12/04 06:00 UTC NOAA

Florianopolis Aeroporto , Brazil (SBFL) 27-40S 048-33W 5M
Dec 04, 2022 - 01:00 AM EST / 2022.12.04 0600 UTC
Wind: from the NNW (330 degrees) at 8 MPH (7 KT):0
Visibility: greater than 7 mile(s):0
Sky conditions: mostly cloudy
Temperature: 77 F (25 C)
Dew Point: 75 F (24 C)
Relative Humidity: 94%
Pressure (altimeter): 29.77 in. Hg (1008 hPa)
ob: SBFL 040600Z 33007KT 9999 SCT008 BKN017 25/24 Q1008
cycle: 6

Station Type Date Time Source
SBFL TAF 2022/12/04 06:45 UTC NOAA

TAF SBFL 040300Z 0406/0506 20006KT 9999 SCT020 TN23/0406Z TX27/0415Z
BECMG 0407/0409 5000 BR BKN008
BECMG 0410/0412 06010KT SCT010
BECMG 0418/0420 8000 RA SCT020 FEW030TCU
BECMG 0420/0422 06005KT 9999 SCT015
BECMG 0500/0502 33005KT SCT010
RMK PCQ

Example: see airport list